Tiempo atmosférico en la estación meteorológica de Vejer De La Frontera, Cádiz (160 m.)



Fecha
DESCASC
Temp. máxima en grados centígrados (hora)
DESCASC
Temp. mínima en grados centígrados (hora)
DESCASC
Temp. media en grados centígrados
DESCASC
Racha de viento máxima en m/sg (hora)
DESCASC
Velocidad máxima media en intervalos de 10 minutos(hora)
DESCASC
Precipitaciones diarias en mm
DESCASC
Precipitaciones de 00:00 a 06:00 en mm
DESCASC
Precipitaciones de 06:00 a 12:00 en mm
DESCASC
Precipitaciones de 12:00 a 18:00 en mm
DESCASC
Precipitaciones de 18:00 a 24:00 en mm
DESCASC
05-04-2020 22.2 (14:00) 13.5 (05:20) 17.9 10.83 (01:30) 5 (10:40) 0 0 0 0 0
04-04-2020 17 (18:40) 13.2 (01:10) 15.1 16.11 (04:50) 7.22 (00:20) 0.2 0 0 0.2 0
03-04-2020 21 (15:10) 11.6 (08:20) 16.3 13.33 (19:20) 5.83 (19:30) 0 0 0 0 0
02-04-2020 15.3 (19:20) 10.2 (00:00) 12.8 13.06 (05:20) 6.67 (05:30) 8.3 2.4 5.8 0.1 0
01-04-2020 18.5 (16:20) 10.8 (00:00) 14.7 10.83 (17:50) 5.83 (18:00) 1 0 0.1 0 0.9
31-03-2020 18.1 (13:40) 11.8 (00:00) 15 13.61 (02:00) 7.78 (13:40) 21.2 8.4 4.5 7.2 1.1
30-03-2020 17.6 (18:40) 12.2 (00:00) 14.9 8.89 (16:40) 5.56 (16:20) 1.1 0 0 0 1.1
29-03-2020 20.4 (14:40) 11.1 (00:00) 15.8 8.06 (01:00) 3.61 (17:20) 0 0 0 0 0
28-03-2020 20.6 (15:10) 10.6 (00:00) 15.6 7.5 (17:50) 3.33 (18:10) 0 0 0 0 0
27-03-2020 19 (16:00) 11.4 (00:00) 15.2 8.33 (17:30) 4.44 (17:20) 0 0 0 0 0
26-03-2020 18.3 (14:10) 11 (00:00) 14.6 11.39 (15:20) 6.39 (15:00) 0 0 0 0 0
25-03-2020 18.6 (16:20) 11.7 (00:00) 15.2 8.33 (11:40) 3.89 (11:40) 0.3 0 0.3 0 0
24-03-2020 14.8 (18:00) 11 (00:00) 12.9 6.39 (21:30) 3.33 (23:10) 19.8 2.8 14.1 2.9 0
23-03-2020 19.3 (15:10) 9.9 (00:00) 14.6 7.78 (15:10) 3.61 (19:30) 0.2 0 0 0.2 0
22-03-2020 17.7 (15:50) 9.8 (04:50) 13.8 6.94 (15:00) 3.89 (16:40) 0.3 0.3 0 0 0
21-03-2020 14.6 (10:30) 10.3 (00:00) 12.5 14.72 (14:40) 8.06 (13:50) 16.5 0.1 0.9 13 2.5
20-03-2020 16.9 (16:20) 11.4 (00:00) 14.1 14.17 (23:20) 7.78 (23:20) 8.9 0 0.6 0 8.3
19-03-2020 16.1 (10:20) 14.5 (00:00) 15.3 21.67 (01:00) 9.17 (01:10) 0 0 0 0 0
18-03-2020 18.6 (14:50) 13.7 (00:00) 16.2 27.78 (12:10) 10.83 (12:10) 7.2 7.2 0 0 0
17-03-2020 17.1 (15:10) 8.3 (00:00) 12.7 16.11 (15:10) 6.67 (14:40) 10.8 0.3 4.8 0.1 5.6
16-03-2020 15.7 (18:00) 9.5 (00:00) 12.6 13.89 (16:50) 6.39 (15:30) 0.3 0.3 0 0 0
15-03-2020 22.8 (14:50) 13.4 (00:00) 18.1 10 (01:50) 4.44 (11:00) 0 0 0 0 0
14-03-2020 23.4 (15:50) 12.9 (00:00) 18.1 8.33 (23:50) 3.89 (23:59) 0 0 0 0 0
13-03-2020 20.4 (14:20) 13.3 (23:59) 16.8 6.39 (15:20) 3.61 (15:20) 0 0 0 0 0
12-03-2020 23.8 (15:50) 15 (00:00) 19.4 7.78 (06:40) 4.17 (06:30) 0 0 0 0 0
11-03-2020 26.2 (15:40) 14.1 (00:00) 20.2 13.61 (11:50) 5.56 (11:40) 0 0 0 0 0
10-03-2020 24.7 (14:40) 12.2 (00:00) 18.5 11.67 (15:50) 5.56 (15:50) 0 0 0 0 0
09-03-2020 23.5 (14:30) 13.3 (00:00) 18.4 8.61 (15:00) 5 (16:30) 0 0 0 0 0

Gráficas

Temp. máximas Temp. mínimas Temp. medias Precipitaciones Rachas de viento máximas Velocidades máximas media en intervalos de 10 minutos

Datos horarios

Fecha y hora oficial Temperatura (ºC) Velocidad del viento (km/h) Dirección del viento Racha (km/h) Dirección de racha Precipitación (mm) Presión (hPa) Tendencia (hPa) Humedad (%)
2020-04-07 23:00:00 14.6 12 Este 35 Este 0 1001 1.1 81
2020-04-07 22:00:00 15 15 Este 36 Este 0 1000.5 1 78
2020-04-07 21:00:00 15.6 13 Este 31 Este 0 999.9 0.3 72
2020-04-07 20:00:00 16.8 13 Este 37 Este 0 999.9 -0.1 68
2020-04-07 19:00:00 18.3 14 Este 32 Este 0 999.5 -0.6 61
2020-04-07 18:00:00 19.9 13 Este 37 Este 0 999.6 -0.9 58
2020-04-07 17:00:00 20.4 14 Este 33 Este 0 1000 -1.4 56
2020-04-07 16:00:00 21.8 14 Este 37 Sudeste 0 1000.1 -1.5 55
2020-04-07 15:00:00 21.1 14 Este 39 Este 0 1000.5 -1.1 58
2020-04-07 14:00:00 21.6 16 Este 39 Este 0 1001.4 0.3 54
2020-04-07 13:00:00 20.8 14 Este 32 Este 0 1001.6 0.7 59
2020-04-07 12:00:00 19.8 14 Este 33 Este 0 1001.6 1.1 62
2020-04-07 11:00:00 17.9 12 Este 27 Sudeste 0 1001.1 1.1 70
2020-04-07 10:00:00 15.1 12 Este 25 Este 0 1000.9 0.9 80
2020-04-07 09:00:00 14.1 9 Este 25 Este 0 1000.5 0.1 83
2020-04-07 08:00:00 13.3 10 Este 24 Este 0 1000 -0.2 85
2020-04-07 07:00:00 13.4 12 Este 24 Este 0 1000 -0.4 84
2020-04-07 06:00:00 13.3 9 Este 23 Este 0 1000.4 -0.3 87
2020-04-07 05:00:00 13.5 11 Este 23 Este 0 1000.2 -0.6 86
2020-04-07 04:00:00 13.4 10 Este 24 Este 0 1000.4 -0.3 85
2020-04-07 03:00:00 13.7 9 Este 23 Este 0 1000.7 -0.4 82
2020-04-07 02:00:00 13.8 6 Este 17 Este 0 1000.8 -0.2 80
2020-04-07 01:00:00 13.9 10 Este 21 Este 0 1000.7 0.1 80
2020-04-07 00:00:00 14.1 6 Este 16 Este 0 1001.1 1.2 80
2020-04-06 23:00:00 14.9 6 Este 20 Este 0 1001 1.4 76
2020-04-06 22:00:00 15.5 6 Este 17 Sudeste 0 1000.6 1.3 72
2020-04-06 21:00:00 16.5 8 Este 17 Sudeste 0 999.9 0.4 74
2020-04-06 20:00:00 18.9 6 Sudeste 13 Sudeste 0 999.6 -0.2 71
2020-04-06 19:00:00 20.6 5 Sur 15 Sudeste 0 999.3 -1 67
2020-04-06 18:00:00 21.4 6 Sur 17 Sudeste 0 999.5 -0.8 66
2020-04-06 17:00:00 21.8 8 Sudeste 18 Sudeste 0 999.8 -0.6 64
2020-04-06 16:00:00 21 10 Sur 22 Sudeste 0.1 1000.3 -0.2 69
2020-04-06 15:00:00 20.8 8 Sudeste 20 Sur 0 1000.3 -0.1 69
2020-04-06 14:00:00 18.9 8 Sudeste 18 Este 0 1000.4 0.5 76
2020-04-06 13:00:00 17.2 9 Este 22 Este 0 1000.5 1.1 83
2020-04-06 12:00:00 15.9 9 Este 19 Este 0 1000.4 1.5 90
2020-04-06 11:00:00 14.6 12 Este 21 Este 0.4 999.9 2 93
2020-04-06 10:00:00 14.4 9 Este 21 Sudeste 0.3 999.4 1.9 90
2020-04-06 09:00:00 14.5 11 Este 21 Sudeste 0 998.9 1.6 86
2020-04-06 08:00:00 14 11 Este 19 Este 0 997.9 0.4 87
2020-04-06 07:00:00 14 10 Este 18 Este 0 997.5 0 85
2020-04-06 06:00:00 14.1 5 Este 13 Este 0 997.3 -0.4 84
2020-04-06 05:00:00 14.1 6 Este 14 Este 0 997.5 -0.7 83
2020-04-06 04:00:00 14 7 Este 17 Este 0 997.5 -0.7 84
2020-04-06 03:00:00 14.1 9 Este 18 Este 0 997.7 -0.3 84
2020-04-06 02:00:00 14.1 9 Este 18 Este 0 998.2 0.7 85
2020-04-06 01:00:00 14.1 8 Este 18 Este 0 998.2 1 85
2020-04-06 00:00:00 14.4 11 Este 23 Este 0 998 1.2 83
2020-04-05 23:00:00 14.7 11 Este 21 Este 0 997.5 1.1 83
2020-04-05 22:00:00 14.9 10 Este 17 Este 0 997.2 1.2 83
2020-04-05 21:00:00 15.4 9 Este 21 Este 0 996.8 1.1 81
2020-04-05 20:00:00 16.9 9 Este 24 Sudeste 0 996.4 0.5 77
2020-04-05 19:00:00 18 10 Este 26 Este 0 996 0.2 73
2020-04-05 18:00:00 19.2 11 Este 30 Este 0 995.7 -0.6 69
2020-04-05 17:00:00 20 12 Este 29 Este 0 995.9 -0.6 66
2020-04-05 16:00:00 20.5 13 Este 30 Este 0 995.8 -0.6 64
2020-04-05 15:00:00 19.6 14 Este 30 Sudeste 0 996.3 -0.3 65
2020-04-05 14:00:00 21.5 14 Sudeste 35 Este 0 996.5 0.1 58
2020-04-05 13:00:00 20.6 15 Sudeste 32 Sudeste 0 996.4 0.5 62
2020-04-05 12:00:00 19.1 14 Este 34 Este 0 996.6 1.3 64
2020-04-05 11:00:00 18 15 Este 36 Sudeste 0 996.4 2.2 69
2020-04-05 10:00:00 15.7 15 Este 29 Este 0 995.9 2 78
2020-04-05 09:00:00 14.2 12 Este 32 Este 0 995.3 1.5 84
2020-04-05 08:00:00 13.5 14 Este 32 Este 0 994.2 0.5 86
2020-04-05 07:00:00 13.6 14 Este 33 Este 0 993.9 0 86
2020-04-05 06:00:00 13.5 13 Este 27 Este 0 993.8 -0.4 86
2020-04-05 05:00:00 13.6 12 Este 32 Este 0 993.7 -0.6 85
2020-04-05 04:00:00 13.7 14 Este 31 Este 0 993.9 -0.4 84
2020-04-05 03:00:00 13.7 14 Este 37 Sudeste 0 994.2 0 83
2020-04-05 02:00:00 13.9 16 Este 39 Este 0 994.3 0.1 84
2020-04-05 01:00:00 13.8 14 Este 28 Este 0 994.3 0.8 84
2020-04-05 00:00:00 13.9 12 Este 33 Este 0 994.2 1.5 82
2020-04-04 23:00:00 14.3 16 Este 31 Este 0 994.2 2 79
2020-04-04 22:00:00 14.3 15 Este 39 Este 0 993.5 1.7 79
2020-04-04 21:00:00 14.6 20 Este 40 Este 0 992.7 1.1 78
2020-04-04 20:00:00 15.5 20 Este 44 Este 0 992.2 0.6 75
2020-04-04 19:00:00 15.3 20 Este 42 Este 0 991.8 0.4 71
2020-04-04 18:00:00 15.6 20 Este 45 Este 0 991.6 0 71
2020-04-04 17:00:00 15.6 21 Este 52 Este 0 991.6 0.9 74
2020-04-04 16:00:00 15.8 23 Este 50 Sudeste 0 991.4 -0.2 74
2020-04-04 15:00:00 15.1 21 Este 47 Este 0 991.6 -0.7 78
2020-04-04 14:00:00 14.8 15 Este 50 Este 0.2 990.7 -1.2 81
2020-04-04 13:00:00 15.5 17 Este 43 Sudeste 0 991.6 0.8 77
2020-04-04 12:00:00 15.7 22 Este 53 Este 0 992.3 2.3 72
2020-04-04 11:00:00 15.1 23 Este 47 Este 0 991.9 2.4 73
2020-04-04 10:00:00 14.4 22 Este 56 Este 0 990.8 1 76
2020-04-04 09:00:00 13.9 20 Este 41 Este 0 990 0.3 75
2020-04-04 08:00:00 13.5 15 Este 42 Este 0 989.5 -0.7 77
2020-04-04 07:00:00 13.6 16 Este 44 Este 0 989.8 -0.5 77
2020-04-04 06:00:00 13.5 22 Este 48 Este 0 989.7 -1.2 78
2020-04-04 05:00:00 13.5 21 Este 58 Sudeste 0 990.2 -1 76
2020-04-04 04:00:00 13.4 20 Este 46 Este 0 990.3 -1.1 76
2020-04-04 03:00:00 13.4 21 Este 51 Este 0 990.9 -0.7 77
2020-04-04 02:00:00 13.3 18 Este 42 Este 0 991.2 -0.6 78
2020-04-04 01:00:00 13.3 21 Este 53 Este 0 991.4 -0.5 78
2020-04-04 00:00:00 13.3 17 Este 41 Este 0 991.6 -0.2 77
2020-04-03 23:00:00 13.5 18 Este 45 Este 0 991.8 0 78
2020-04-03 22:00:00 13.9 15 Este 36 Nordeste 0 991.9 0.6 76
2020-04-03 21:00:00 14.7 17 Este 41 Este 0 991.8 0 67
2020-04-03 20:00:00 15.2 19 Este 48 Este 0 991.8 -0.3 59
2020-04-03 19:00:00 18 18 Este 43 Este 0 991.3 -1.6 53
2020-04-03 18:00:00 19.5 18 Este 44 Este 0 991.8 -1.8 49
2020-04-03 17:00:00 20.8 11 Este 32 Nordeste 0 992.1 -2 50
2020-04-03 16:00:00 20.4 8 Sudeste 21 Sudoeste 0 992.9 -1.8 55
2020-04-03 15:00:00 20.3 9 Sudoeste 20 Oeste 0 993.6 -1.4 60
2020-04-03 14:00:00 20.1 4 Sudoeste 10 Norte 0 994.1 -0.7 59
2020-04-03 13:00:00 19.4 4 Nordeste 11 Nordeste 0 994.7 -0.1 61
2020-04-03 12:00:00 18.6 2 Este 10 Este 0 995 0.6 63
2020-04-03 11:00:00 16.5 5 Sudeste 12 Este 0 994.8 0.9 73
2020-04-03 10:00:00 13.7 7 Sur 14 Sudoeste 0 994.8 1.4 84
2020-04-03 09:00:00 11.9 5 Sudoeste 12 Sudoeste 0 994.4 1.1 89
2020-04-03 08:00:00 11.8 6 Sur 13 Sur 0 993.9 0.4 89
2020-04-03 07:00:00 11.8 5 Sur 12 Sur 0 993.4 -0.6 89
2020-04-03 06:00:00 12 6 Sudoeste 14 Sudoeste 0 993.3 -1.2 88
2020-04-03 05:00:00 12.2 9 Sudoeste 15 Sudoeste 0 993.5 -1.7 86
2020-04-03 04:00:00 12.5 7 Sudoeste 14 Sudoeste 0 994 -1 86
2020-04-03 03:00:00 12.7 6 Sudoeste 13 Sudoeste 0 994.5 -0.6 86
2020-04-03 02:00:00 13 9 Sudoeste 18 Sudoeste 0 995.2 0.5 84
2020-04-03 01:00:00 13 10 Sudoeste 17 Oeste 0 995 0.9 83
2020-04-03 00:00:00 13.1 10 Oeste 23 Oeste 0 995.1 1.9 80
2020-04-02 23:00:00 12.9 12 Oeste 23 Sudoeste 0 994.7 1.8 77
2020-04-02 22:00:00 13 10 Oeste 21 Oeste 0 994.1 1.4 75
2020-04-02 21:00:00 13.3 11 Oeste 22 Oeste 0 993.2 0.9 71
2020-04-02 20:00:00 14.6 11 Oeste 32 Oeste 0 992.9 0.9 63
2020-04-02 19:00:00 15 17 Oeste 39 Oeste 0 992.7 1.1 62
2020-04-02 18:00:00 14.8 19 Oeste 39 Oeste 0 992.3 0.7 63
2020-04-02 17:00:00 14.9 18 Oeste 37 Oeste 0 992 0.8 63
2020-04-02 16:00:00 14.7 17 Oeste 44 Oeste 0.1 991.6 0.7 66
2020-04-02 15:00:00 13.9 15 Oeste 35 Oeste 0 991.6 1.1 62
2020-04-02 14:00:00 13.3 14 Oeste 30 Oeste 0 991.2 1.3 75
2020-04-02 13:00:00 13.3 13 Oeste 31 Oeste 0 990.9 1.8 65
2020-04-02 12:00:00 12.8 12 Noroeste 30 Noroeste 0 990.5 1.3 74
2020-04-02 11:00:00 11.8 12 Oeste 34 Oeste 0.4 989.9 1.2 83
2020-04-02 10:00:00 10.7 18 Oeste 36 Noroeste 1.5 989.1 0.6 85
2020-04-02 09:00:00 10.6 10 Oeste 29 Noroeste 0.6 989.2 0.6 86
2020-04-02 08:00:00 10.8 4 Oeste 17 Norte 0 988.7 -0.2 83
2020-04-02 07:00:00 10.8 8 Oeste 31 Oeste 3.3 988.5 -1.4 93
2020-04-02 06:00:00 11.6 20 Oeste 47 Sudoeste 0.1 988.6 -2.2 85
2020-04-02 05:00:00 12.1 18 Sudoeste 35 Sudoeste 0.2 988.9 -2.3 89
2020-04-02 04:00:00 11.6 13 Oeste 39 Sudoeste 2.1 989.9 -1.8 90
2020-04-02 03:00:00 12.6 11 Oeste 37 Oeste 0 990.8 -1.3 78
2020-04-02 02:00:00 13.5 17 Sudoeste 39 Sudoeste 0 991.2 -1.2 74
2020-04-02 01:00:00 13.3 19 Sudoeste 31 Oeste 0 991.7 -0.3 75
2020-04-02 00:00:00 13 15 Sudoeste 32 Sudoeste 0 992.1 0.5 78
2020-04-01 23:00:00 13.3 15 Sudoeste 35 Sudoeste 0 992.4 0.8 72
2020-04-01 22:00:00 13 15 Oeste 27 Sudoeste 0 992 0.6 71
2020-04-01 21:00:00 12.9 15 Oeste 39 Sudoeste 0 991.6 0.3 75
2020-04-01 20:00:00 13.4 17 Sudoeste 33 Sudoeste 0 991.6 0.3 71
2020-04-01 19:00:00 13.9 10 Oeste 37 Sudoeste 0.9 991.4 -0.5 85
2020-04-01 18:00:00 16.1 21 Sudoeste 39 Oeste 0 991.3 -0.7 59
2020-04-01 17:00:00 17.4 17 Sudoeste 32 Sudoeste 0 991.3 -1 56
2020-04-01 16:00:00 18.1 18 Sudoeste 32 Sudoeste 0 991.9 -0.6 58
2020-04-01 15:00:00 17.9 15 Oeste 27 Sudoeste 0 992 -0.7 55
2020-04-01 14:00:00 17 12 Sudoeste 24 Sudoeste 0 992.3 -0.2 57
2020-04-01 13:00:00 15.7 6 Oeste 16 Oeste 0 992.5 0.7 59
2020-04-01 12:00:00 14.9 3 Norte 15 Norte 0 992.7 1.5 65
2020-04-01 11:00:00 14.1 4 Norte 12 Norte 0 992.5 2 67
2020-04-01 10:00:00 11.9 5 Norte 17 Norte 0.1 991.8 2 72
2020-04-01 09:00:00 10.9 10 Norte 19 Norte 0 991.2 1.5 74
2020-04-01 08:00:00 11.6 2 Noroeste 8 Norte 0 990.5 1 83
2020-04-01 07:00:00 11.6 3 Norte 8 Norte 0 989.8 0.3 81
2020-04-01 06:00:00 12 0 Calma 8 Norte 0 989.7 -0.3 81
2020-04-01 05:00:00 12.2 4 Noroeste 9 Norte 0 989.5 -0.6 79
2020-04-01 04:00:00 12.6 4 Noroeste 11 Oeste 0 989.5 -0.6 77
2020-04-01 03:00:00 12.8 7 Oeste 15 Oeste 0 990 0.2 80
2020-04-01 02:00:00 13 6 Oeste 17 Sudoeste 0 990.1 0.5 87
2020-04-01 01:00:00 13.1 10 Oeste 19 Sudoeste 0 990.1 1.4 87
2020-04-01 00:00:00 13.4 8 Oeste 20 Sudoeste 0 989.8 2.1 88
2020-03-31 23:00:00 13.7 10 Sudoeste 19 Sudoeste 0 989.6 2.6 88
2020-03-31 22:00:00 13.7 9 Sudoeste 18 Sudoeste 0 988.7 2.5 90
2020-03-31 21:00:00 14.1 10 Sudoeste 19 Sudoeste 0.1 987.7 2.2 89
2020-03-31 20:00:00 14.3 12 Sudoeste 32 Sudoeste 0.9 987 1.9 89
2020-03-31 19:00:00 15.1 19 Sudoeste 44 Sudoeste 0.1 986.2 1 85
2020-03-31 18:00:00 16.8 21 Sudoeste 37 Sudoeste 0 985.5 0.5 81
2020-03-31 17:00:00 15.5 21 Sudoeste 36 Sudoeste 0.3 985.1 0.1 86
2020-03-31 16:00:00 14.3 20 Sudoeste 39 Sudoeste 5.1 985.2 0.3 91
2020-03-31 15:00:00 15.5 19 Sudoeste 40 Sudoeste 1.8 985 0.3 88
2020-03-31 14:00:00 17.7 27 Sudoeste 46 Sudoeste 0 985 0.7 74
2020-03-31 13:00:00 16.9 26 Sudoeste 39 Sudoeste 0 984.9 1.1 78
2020-03-31 12:00:00 16.5 23 Sudoeste 42 Sudoeste 0.1 984.7 1.3 81
2020-03-31 11:00:00 14.4 15 Sudoeste 25 Sudoeste 1.1 984.3 1.5 91
2020-03-31 10:00:00 14 13 Sudoeste 28 Sudoeste 0 983.8 1.5 91
2020-03-31 09:00:00 13.6 16 Sudoeste 32 Sudoeste 0 983.4 1.3 92
2020-03-31 08:00:00 13.1 16 Sudoeste 29 Sudoeste 0 982.8 0.1 91
2020-03-31 07:00:00 13.5 14 Sudoeste 34 Sudoeste 3.3 982.3 -1 92
2020-03-31 06:00:00 13.3 12 Sur 25 Sur 0.7 982.1 -0.5 92
2020-03-31 05:00:00 13.3 16 Sur 32 Sur 0 982.7 -1.3 93
2020-03-31 04:00:00 12.6 16 Sudeste 28 Sudeste 0.1 983.3 -0.7 94
2020-03-31 03:00:00 12.3 12 Sur 48 Sur 2.4 982.6 -1.9 91
2020-03-31 02:00:00 12.7 21 Sur 49 Sudeste 4.4 984 -1.2 94
2020-03-31 01:00:00 12.5 18 Sudeste 37 Sudeste 0.8 984 -1.5 90
2020-03-31 00:00:00 13.3 9 Sudeste 25 Sur 0.2 984.5 -1.3 91
2020-03-30 23:00:00 13.7 11 Sudeste 21 Sudeste 0.8 985.2 -1.2 88
2020-03-30 22:00:00 14.4 7 Sudeste 14 Sudeste 0.1 985.5 -1.3 84
2020-03-30 21:00:00 14.9 3 Sur 13 Sudoeste 0 985.8 -1.7 79
2020-03-30 20:00:00 15 7 Sudoeste 17 Sudoeste 0 986.4 -2.2 76
2020-03-30 19:00:00 16.3 12 Sudoeste 23 Oeste 0 986.8 -2.3 69
2020-03-30 18:00:00 17.3 14 Oeste 27 Sudoeste 0 987.5 -2.1 66
2020-03-30 17:00:00 16.7 14 Oeste 32 Sudoeste 0 988.6 -1.8 70
2020-03-30 16:00:00 17 19 Sudoeste 29 Sudoeste 0 989.1 -1.8 69
2020-03-30 15:00:00 16.8 14 Sudoeste 24 Sudoeste 0 989.6 -1.9 68
2020-03-30 14:00:00 17.4 11 Sudoeste 24 Sudoeste 0 990.4 -1.2 71
2020-03-30 13:00:00 16.4 11 Sudoeste 22 Sudoeste 0 990.9 -0.5 71
2020-03-30 12:00:00 14.9 9 Sur 19 Sudoeste 0 991.5 -0.2 77
2020-03-30 11:00:00 14.7 8 Sur 15 Sur 0 991.6 0 82
2020-03-30 10:00:00 13.4 7 Sur 17 Sur 0 991.4 -0.4 90
2020-03-30 09:00:00 12.9 6 Sur 12 Sur 0 991.7 -0.4 91
2020-03-30 08:00:00 12.4 4 Sur 7 Sur 0 991.6 -1.1 89
2020-03-30 07:00:00 12.3 0 Calma 4 Sur 0 991.8 -1.5 89
2020-03-30 06:00:00 12.2 3 Sudeste 6 Sudeste 0 992.1 -1.6 88
2020-03-30 05:00:00 12.5 2 Sur 4 Sur 0 992.7 -1.8 87
2020-03-30 04:00:00 12.9 0 Calma 3 Sudeste 0 993.3 -1.8 87
2020-03-30 03:00:00 12.9 0 Calma 4 Sur 0 993.7 -1.7 86
2020-03-30 02:00:00 13 0 Calma 5 Sudeste 0 994.5 -1 85
2020-03-30 01:00:00 13.2 3 Sudoeste 5 Sudoeste 0 995.1 -0.1 83
2020-03-30 00:00:00 13.3 4 Sudoeste 5 Sudoeste 0 995.4 0.5 81
2020-03-29 23:00:00 13.5 2 Sudoeste 6 Sudoeste 0 995.5 0.4 77
2020-03-29 22:00:00 14.1 4 Sudoeste 14 Sudoeste 0 995.2 0.2 75
2020-03-29 21:00:00 14.7 8 Oeste 16 Sudoeste 0 994.9 -0.1 75
2020-03-29 20:00:00 16.2 8 Sudoeste 18 Sudoeste 0 995.1 -0.4 73
2020-03-29 19:00:00 16.9 11 Sudoeste 19 Sur 0 995 -0.9 70
2020-03-29 18:00:00 17.6 11 Sudoeste 23 Sudoeste 0 995 -1.3 67
2020-03-29 17:00:00 19.4 10 Sudoeste 22 Sudoeste 0 995.5 -1.2 59
2020-03-29 16:00:00 19.7 9 Sudoeste 19 Sur 0 995.9 -1.3 57
2020-03-29 15:00:00 20.1 8 Sudeste 21 Este 0 996.3 -1.2 55
2020-03-29 14:00:00 19.6 8 Sudeste 21 Sudeste 0 996.7 -0.8 57
2020-03-29 13:00:00 17.8 8 Sudeste 19 Este 0 997.2 0.2 63
2020-03-29 12:00:00 17.2 8 Este 18 Sudeste 0 997.5 0.6 64
2020-03-29 11:00:00 15.3 4 Este 11 Este 0 997.5 1.2 75
2020-03-29 10:00:00 12.7 4 Este 9 Este 0 997 1.1 83
2020-03-29 09:00:00 11.7 3 Este 10 Este 0 996.9 0.9 85
2020-03-29 08:00:00 11.2 6 Este 18 Este 0 996.3 0.1 85
2020-03-29 07:00:00 11.4 7 Este 19 Este 0 995.9 -0.7 85
2020-03-29 06:00:00 11.5 9 Este 24 Este 0 996 -1 85
2020-03-29 05:00:00 11.6 9 Este 23 Este 0 996.2 -0.8 85
2020-03-29 03:00:00 12.1 7 Este 23 Este 0 997 0 82
2020-03-29 01:00:00 12.4 11 Este 29 Este 0 997 0 83
2020-03-29 00:00:00 12.3 9 Este 21 Este 0 997.4 1.1 84
2020-03-28 23:00:00 12.3 9 Este 20 Este 0 997 1.7 84
2020-03-28 22:00:00 12.8 7 Este 18 Este 0 997 2.2 82
2020-03-28 21:00:00 12.7 8 Este 22 Este 0 996.3 1.9 80
2020-03-28 20:00:00 13.6 8 Este 22 Este 0 995.3 1.1 75
2020-03-28 19:00:00 15.2 10 Este 27 Este 0 994.8 0.9 71
2020-03-28 18:00:00 16.9 10 Este 27 Sudeste 0 994.4 0.4 65
2020-03-28 17:00:00 18 8 Sur 24 Sur 0 994.2 -0.2 61
2020-03-28 16:00:00 19.4 9 Sur 19 Sudeste 0 993.9 -0.6 50
2020-03-28 15:00:00 20.4 5 Sur 21 Sudeste 0 994 -0.4 47
2020-03-28 14:00:00 18.8 11 Sur 22 Este 0 994.4 0.1 45
2020-03-28 13:00:00 18.9 7 Sur 20 Sudeste 0 994.5 0.5 55
2020-03-28 12:00:00 18.5 8 Sudeste 19 Sudeste 0 994.4 1 57
2020-03-28 11:00:00 17.3 7 Sudeste 16 Este 0 994.3 1.7 60
2020-03-28 10:00:00 14.9 6 Sudeste 14 Sudeste 0 994 2 76
2020-03-28 09:00:00 12.7 3 Este 8 Este 0 993.4 2 79
2020-03-28 08:00:00 11.1 4 Este 7 Este 0 992.6 1.5 82
2020-03-28 07:00:00 10.7 2 Este 6 Este 0 992 0.8 84
2020-03-28 06:00:00 10.9 3 Este 5 Este 0 991.4 0 85
2020-03-28 05:00:00 11.4 0 Calma 5 Este 0 991.1 -0.4 83
2020-03-28 04:00:00 11.6 3 Este 5 Este 0 991.2 -0.4 81
2020-03-28 03:00:00 11.5 2 Este 5 Este 0 991.4 -0.2 81
2020-03-28 02:00:00 11.5 0 Calma 4 Sur 0 991.5 0.3 81
2020-03-28 01:00:00 11.8 0 Calma 5 Sudoeste 0 991.6 0.6 79
2020-03-28 00:00:00 12 4 Sudoeste 7 Sudoeste 0 991.6 1.4 77
2020-03-27 23:00:00 12.2 5 Sudoeste 7 Sudoeste 0 991.2 1.7 78
2020-03-27 22:00:00 12.9 3 Oeste 6 Noroeste 0 991 1.8 74
2020-03-27 21:00:00 13.1 3 Oeste 9 Oeste 0 990.2 1.5 73
2020-03-27 20:00:00 13.8 5 Oeste 21 Sudoeste 0 989.5 1.2 74
2020-03-27 19:00:00 15.1 11 Oeste 26 Oeste 0 989.2 0.5 69
2020-03-27 18:00:00 16.5 14 Sudoeste 30 Sudoeste 0 988.7 -0.3 66
2020-03-27 17:00:00 18.5 15 Sudoeste 29 Sudoeste 0 988.3 -1.3 54
2020-03-27 16:00:00 18.9 14 Oeste 26 Oeste 0 988.7 -1.1 53
2020-03-27 15:00:00 17.8 10 Oeste 22 Oeste 0 989 -0.7 60
2020-03-27 14:00:00 17.5 9 Oeste 23 Oeste 0 989.6 -0.2 59
2020-03-27 13:00:00 16.9 12 Sudoeste 26 Oeste 0 989.8 0.1 66
2020-03-27 12:00:00 17 10 Oeste 23 Oeste 0 989.7 0.6 68
2020-03-27 11:00:00 14.5 5 Oeste 12 Oeste 0 989.8 1.1 76
2020-03-27 10:00:00 13.8 0 Calma 6 Sur 0 989.7 1.6 81
2020-03-27 09:00:00 12.6 0 Calma 9 Norte 0 989.1 1.1 83
2020-03-27 08:00:00 12 2 Noroeste 8 Noroeste 0 988.7 0.6 86
2020-03-27 07:00:00 11.5 3 Noroeste 7 Norte 0 988.1 -0.1 88
2020-03-27 06:00:00 11.7 3 Norte 6 Norte 0 988 -0.6 88
2020-03-27 05:00:00 12.1 3 Norte 9 Oeste 0 988.1 -0.8 88
2020-03-27 04:00:00 12.4 3 Noroeste 9 Noroeste 0 988.2 -1.1 87
2020-03-27 03:00:00 12.8 2 Noroeste 15 Norte 0 988.6 -1 87
2020-03-27 02:00:00 13.5 4 Noroeste 10 Noroeste 0 988.9 -0.9 88
2020-03-27 01:00:00 14 9 Oeste 20 Oeste 0 989.3 -0.5 87
2020-03-27 00:00:00 14.1 9 Oeste 22 Oeste 0 989.6 -0.2 90
2020-03-26 23:00:00 14.5 11 Oeste 23 Oeste 0 989.8 0.3 86
2020-03-26 22:00:00 14.5 14 Oeste 26 Oeste 0 989.8 0.5 87
2020-03-26 21:00:00 14.4 15 Oeste 28 Oeste 0 989.8 0.3 87
2020-03-26 20:00:00 14.8 15 Oeste 30 Oeste 0 989.5 -0.3 84
2020-03-26 19:00:00 15.2 17 Oeste 31 Sudoeste 0 989.3 -0.9 77
2020-03-26 18:00:00 17.1 17 Oeste 33 Oeste 0 989.5 -1.2 75
2020-03-26 17:00:00 17.9 20 Oeste 37 Oeste 0 989.8 -1.2 73
2020-03-26 16:00:00 17.2 21 Oeste 41 Sudoeste 0 990.2 -1.4 77
2020-03-26 15:00:00 17.3 23 Oeste 38 Oeste 0 990.7 -1.4 74
2020-03-26 14:00:00 18 19 Oeste 38 Oeste 0 991 -1.2 68
2020-03-26 13:00:00 16.9 17 Oeste 33 Oeste 0 991.6 -0.3 76
2020-03-26 12:00:00 17.6 15 Oeste 29 Sudoeste 0 992.1 0.3 77
2020-03-26 11:00:00 16.1 10 Sudoeste 21 Oeste 0 992.2 0.2 80
2020-03-26 10:00:00 15.5 8 Sudoeste 15 Sudoeste 0 991.9 0.1 81
2020-03-26 09:00:00 13.2 7 Sudoeste 13 Sudoeste 0 991.8 0.1 87
2020-03-26 08:00:00 11.9 7 Oeste 11 Oeste 0 992 0 85
2020-03-26 07:00:00 11.1 4 Sudoeste 8 Sudoeste 0 991.8 -0.6 77
2020-03-26 06:00:00 11.5 2 Oeste 3 Oeste 0 991.7 -1.5 77
2020-03-26 05:00:00 11.1 0 Calma 5 Nordeste 0 992 -1.6 81
2020-03-26 04:00:00 11.2 0 Calma 6 Este 0 992.4 -1.6 82
2020-03-26 03:00:00 11.3 4 Nordeste 7 Este 0 993.2 -1.2 82
2020-03-26 02:00:00 11.5 4 Este 7 Nordeste 0 993.6 -1.2 82
2020-03-26 01:00:00 11.7 4 Este 12 Este 0 994 -0.9 80
2020-03-26 00:00:00 11.8 5 Este 12 Sudeste 0 994.4 -0.3 79
2020-03-25 23:00:00 11.7 5 Este 14 Este 0 994.8 0.8 81
2020-03-25 22:00:00 12 5 Este 12 Este 0 994.9 0.9 79
2020-03-25 21:00:00 12.5 5 Este 14 Sudeste 0 994.7 0.9 77
2020-03-25 20:00:00 13.1 7 Este 17 Este 0 994 0.2 76
2020-03-25 19:00:00 15.3 8 Este 20 Sudeste 0 994 0 69
2020-03-25 18:00:00 17 7 Este 24 Este 0 993.8 -0.7 64
2020-03-25 17:00:00 16.7 9 Este 24 Este 0 993.8 -0.9 63
2020-03-25 16:00:00 18.2 10 Este 27 Este 0 994 -0.9 61
2020-03-25 15:00:00 17.5 14 Este 27 Este 0 994.5 -0.5 61
2020-03-25 14:00:00 17.6 11 Este 28 Este 0 994.7 -0.3 59
2020-03-25 13:00:00 16.9 11 Este 28 Este 0 994.9 0.1 65
2020-03-25 12:00:00 14.9 14 Este 30 Sudeste 0 995 0.7 72
2020-03-25 11:00:00 13.6 11 Este 27 Este 0 995 1.2 82
2020-03-25 10:00:00 13 10 Este 23 Este 0.2 994.8 1.6 90
2020-03-25 09:00:00 12.6 9 Este 21 Este 0.1 994.3 1.7 90
2020-03-25 08:00:00 12.8 8 Este 23 Sudeste 0 993.8 1.2 88
2020-03-25 07:00:00 12.9 7 Este 15 Este 0 993.2 0.9 84
2020-03-25 06:00:00 13 8 Este 15 Este 0 992.6 0.5 83
2020-03-25 05:00:00 13 6 Este 13 Este 0 992.6 0.2 83
2020-03-25 04:00:00 13 5 Este 21 Este 0 992.3 -0.1 83
2020-03-25 03:00:00 13 9 Este 22 Este 0 992.1 0.2 83
2020-03-25 02:00:00 13.2 12 Este 25 Este 0 992.4 0.7 80
2020-03-25 01:00:00 13 10 Este 23 Este 0 992.4 1.2 84
2020-03-25 00:00:00 12.9 10 Sudeste 22 Este 0 991.9 1.4 86
2020-03-24 23:00:00 12.8 11 Este 21 Este 0 991.7 2.2 88
2020-03-24 22:00:00 13 9 Este 23 Este 0 991.2 2.3 85
2020-03-24 21:00:00 13.3 8 Este 20 Nordeste 0 990.5 2.2 85
2020-03-24 20:00:00 13.3 9 Nordeste 17 Nordeste 0 989.5 1.8 86
2020-03-24 19:00:00 14.2 3 Nordeste 12 Este 0 988.9 0.9 84
2020-03-24 18:00:00 14.7 4 Nordeste 17 Este 0 988.3 0.2 86
2020-03-24 17:00:00 13.3 4 Nordeste 10 Este 0.3 987.7 -0.6 93
2020-03-24 16:00:00 13 3 Nordeste 12 Este 0.5 988 -0.5 92
2020-03-24 15:00:00 12.7 5 Nordeste 17 Norte 0.7 988.1 0.2 91
2020-03-24 14:00:00 12.5 4 Norte 13 Norte 1.3 988.3 0.9 92
2020-03-24 13:00:00 11.9 8 Sudeste 19 Norte 0.1 988.5 1 93
2020-03-24 12:00:00 12 6 Norte 15 Norte 2.2 987.9 0.3 92
2020-03-24 11:00:00 11.9 8 Oeste 19 Oeste 0.2 987.4 0 92
2020-03-24 10:00:00 11.3 8 Noroeste 14 Oeste 2.6 987.5 0.9 93
2020-03-24 09:00:00 11.6 2 Sudoeste 7 Este 3.5 987.6 1.2 92
2020-03-24 08:00:00 11.3 5 Este 9 Nordeste 3.4 987.4 1 91
2020-03-24 07:00:00 11.4 4 Este 12 Este 2.2 986.6 0.1 90
2020-03-24 06:00:00 11.4 5 Este 11 Este 2.7 986.4 -0.5 88
2020-03-24 05:00:00 11.8 5 Nordeste 13 Norte 0.1 986.4 -0.9 80
2020-03-24 04:00:00 12.2 8 Norte 18 Norte 0 986.5 -1.3 75
2020-03-24 03:00:00 12.4 6 Norte 21 Norte 0 986.9 -1.3 75
2020-03-24 02:00:00 13.3 7 Nordeste 23 Nordeste 0 987.3 -0.8 70
2020-03-24 01:00:00 13.3 9 Nordeste 22 Nordeste 0 987.8 -0.4 68
2020-03-24 00:00:00 13.6 9 Nordeste 22 Nordeste 0 988.2 -0.1 64
2020-03-23 23:00:00 12.9 8 Nordeste 18 Sudeste 0 988.1 0.3 69
2020-03-23 22:00:00 12.7 8 Nordeste 17 Nordeste 0 988.2 0 72
2020-03-23 21:00:00 12.8 6 Este 23 Este 0 988.3 0.5 73
2020-03-23 20:00:00 13 9 Este 27 Este 0 987.8 -0.2 71
2020-03-23 19:00:00 14.5 10 Este 23 Este 0 988.2 0.1 65
2020-03-23 18:00:00 15 10 Este 27 Este 0.2 987.8 -0.5 66
2020-03-23 17:00:00 15.6 8 Este 28 Este 0 988 -0.9 63
2020-03-23 16:00:00 18.6 11 Este 28 Sudeste 0 988.1 -1.7 52
2020-03-23 15:00:00 19.2 11 Sudeste 24 Este 0 988.3 -1.9 52
2020-03-23 14:00:00 17.2 6 Este 21 Este 0 988.9 -1.7 58
2020-03-23 13:00:00 18.6 9 Este 28 Este 0 989.8 -0.8 56
2020-03-23 12:00:00 16.1 8 Este 21 Este 0 990.2 -0.3 67
2020-03-23 11:00:00 15.4 8 Este 21 Este 0 990.6 0.3 70
2020-03-23 10:00:00 13.6 6 Este 16 Nordeste 0 990.6 0.6 77
2020-03-23 09:00:00 10.9 7 Nordeste 14 Nordeste 0 990.5 0.6 85
2020-03-23 08:00:00 10.1 6 Nordeste 14 Este 0 990.3 0.4 88
2020-03-23 07:00:00 10 5 Nordeste 12 Este 0 990 0.2 88
2020-03-23 06:00:00 10.1 4 Nordeste 9 Nordeste 0 989.9 -0.4 89
2020-03-23 05:00:00 10.1 2 Nordeste 9 Nordeste 0 989.9 -0.5 89
2020-03-23 04:00:00 10.1 5 Nordeste 8 Nordeste 0 989.8 -1.1 89
2020-03-23 03:00:00 10.3 5 Nordeste 9 Nordeste 0 990.3 -0.8 86
2020-03-23 02:00:00 10.6 5 Nordeste 9 Nordeste 0 990.4 -0.6 85
2020-03-23 01:00:00 11 4 Nordeste 9 Nordeste 0 990.9 -0.1 83
2020-03-23 00:00:00 11.9 2 Nordeste 12 Norte 0 991.1 0.4 77
2020-03-22 23:00:00 12.3 4 Norte 8 Norte 0 991 0.7 75
2020-03-22 22:00:00 12.2 3 Noroeste 9 Noroeste 0 991 1.2 76
2020-03-22 21:00:00 12.6 5 Oeste 9 Oeste 0 990.7 1.4 76
2020-03-22 20:00:00 13 5 Oeste 14 Oeste 0 990.3 1.3 75
2020-03-22 19:00:00 14.8 8 Oeste 19 Oeste 0 989.8 1 70
2020-03-22 18:00:00 16.3 9 Oeste 22 Oeste 0 989.3 0.2 64
2020-03-22 17:00:00 16.5 12 Oeste 25 Oeste 0 989 -0.4 59
2020-03-22 16:00:00 17.4 10 Oeste 22 Sudoeste 0 988.8 -1.1 59
2020-03-22 15:00:00 16.9 13 Oeste 25 Oeste 0 989.1 -1.1 62
2020-03-22 14:00:00 16.1 13 Oeste 24 Sudoeste 0 989.4 -0.5 63
2020-03-22 13:00:00 16.2 8 Oeste 16 Sudoeste 0 989.9 0.4 64
2020-03-22 12:00:00 13.5 0 Calma 9 Nordeste 0 990.2 1.1 72
2020-03-22 11:00:00 15.6 3 Sudeste 9 Sudeste 0 989.9 1.2 75
2020-03-22 10:00:00 13.9 0 Calma 7 Sudeste 0 989.5 1.2 83
2020-03-22 09:00:00 11.1 0 Calma 4 Este 0 989.1 1 92
2020-03-22 08:00:00 10.3 3 Sudeste 4 Este 0 988.7 0.5 91
2020-03-22 07:00:00 10.3 0 Calma 5 Este 0 988.3 0 92
2020-03-22 06:00:00 10.1 3 Este 6 Este 0.1 988.1 -0.5 92
2020-03-22 05:00:00 9.9 4 Este 9 Norte 0 988.2 -0.8 92
2020-03-22 04:00:00 10 3 Nordeste 6 Nordeste 0 988.3 -1 92
2020-03-22 03:00:00 10.6 0 Calma 8 Sudeste 0 988.6 -1.4 92
2020-03-22 02:00:00 10.4 4 Sudeste 9 Sudeste 0.2 989 -1.5 91
2020-03-22 01:00:00 10.2 3 Sudeste 8 Sudeste 0 989.3 -0.8 90
2020-03-22 00:00:00 10.3 4 Sudeste 10 Sudoeste 0.5 990 0.1 90
2020-03-21 23:00:00 10.8 6 Oeste 25 Sudoeste 1.8 990.5 0.8 86
2020-03-21 22:00:00 11.5 5 Noroeste 25 Oeste 0.2 990.1 0.5 75
2020-03-21 21:00:00 12.9 13 Oeste 25 Sudoeste 0 989.9 0.9 72
2020-03-21 20:00:00 12.8 14 Oeste 31 Oeste 0 989.7 1.5 72
2020-03-21 19:00:00 13.4 18 Oeste 41 Oeste 0 989.6 0.5 72
2020-03-21 18:00:00 14.3 23 Oeste 46 Oeste 0 989 -0.7 73
2020-03-21 17:00:00 13.5 18 Sudoeste 36 Sur 1 988.2 -2.4 90
2020-03-21 16:00:00 12.3 15 Sudoeste 42 Sudoeste 0.5 989.1 -2.1 93
2020-03-21 15:00:00 10.8 23 Sudoeste 53 Sur 4.7 989.7 -2.1 90
2020-03-21 14:00:00 12 24 Sudoeste 49 Sudoeste 5.5 990.6 -1.7 89
2020-03-21 13:00:00 12.5 25 Sudoeste 46 Sudoeste 1.3 991.2 -1.1 83
2020-03-21 12:00:00 13.4 19 Sudoeste 39 Sudoeste 0.4 991.8 -0.4 79
2020-03-21 11:00:00 12.8 15 Sudoeste 35 Sudoeste 0.1 992.3 0.3 76
2020-03-21 10:00:00 14 15 Sudoeste 26 Sudoeste 0 992.3 0.5 71
2020-03-21 09:00:00 11.8 15 Sudoeste 29 Sudoeste 0.4 992.2 0.6 81
2020-03-21 08:00:00 11.5 12 Sudoeste 25 Sudoeste 0 992 0.5 79
2020-03-21 07:00:00 11.5 12 Oeste 25 Oeste 0 991.8 0.1 80
2020-03-21 06:00:00 11.5 15 Oeste 28 Sudoeste 0 991.6 -0.7 78
2020-03-21 05:00:00 11 8 Oeste 19 Oeste 0 991.5 -0.6 83
2020-03-21 04:00:00 11.4 8 Oeste 24 Oeste 0 991.7 -0.6 89
2020-03-21 03:00:00 12.1 4 Sudoeste 12 Noroeste 0 992.3 0.1 90
2020-03-21 02:00:00 12.2 7 Oeste 18 Oeste 0 992.1 -0.1 91
2020-03-21 01:00:00 12.1 11 Oeste 29 Oeste 0.1 992.3 0.4 93
2020-03-21 00:00:00 11.7 15 Oeste 51 Sudoeste 3.1 992.2 1.1 93
2020-03-20 23:00:00 13.1 24 Oeste 42 Oeste 4.7 992.2 1.4 89
2020-03-20 22:00:00 14.2 11 Sudeste 33 Sudeste 0.5 991.9 1.3 89
2020-03-20 21:00:00 14.6 13 Sudeste 36 Este 0 991.1 0.6 83
2020-03-20 20:00:00 14.7 19 Este 38 Sudeste 0 990.8 0.1 82
2020-03-20 19:00:00 15.1 14 Sudeste 39 Este 0 990.6 -0.5 78
2020-03-20 18:00:00 15.3 17 Este 35 Este 0 990.5 -0.8 75
2020-03-20 17:00:00 15.2 15 Este 38 Sudeste 0 990.7 -1.4 76
2020-03-20 16:00:00 15.3 20 Este 39 Este 0 991.1 -1.5 75
2020-03-20 15:00:00 15.7 17 Este 39 Este 0 991.3 -1.6 75
2020-03-20 14:00:00 15.5 18 Este 50 Este 0 992.1 -0.6 78
2020-03-20 13:00:00 15.2 22 Este 45 Este 0 992.6 0.1 78
2020-03-20 12:00:00 14.3 19 Este 42 Este 0.6 992.9 0.7 85
2020-03-20 11:00:00 14.9 21 Este 49 Este 0 992.7 1.4 81
2020-03-20 10:00:00 14.8 18 Este 47 Sudeste 0 992.5 1.3 80
2020-03-20 09:00:00 14.1 17 Este 40 Este 0 992.2 1 83
2020-03-20 08:00:00 13.9 20 Este 42 Este 0 991.3 0.4 84
2020-03-20 07:00:00 13.8 21 Este 41 Este 0 991.2 0.2 84
2020-03-20 06:00:00 14.1 19 Este 46 Este 0 991.2 -0.2 80
2020-03-20 05:00:00 13.8 20 Este 39 Este 0 990.9 -1.3 81
2020-03-20 04:00:00 14.1 20 Este 44 Este 0 991 -1.7 80
2020-03-20 03:00:00 14.3 21 Este 40 Este 0 991.4 -1.7 80
2020-03-20 02:00:00 14.4 20 Este 48 Este 0 992.2 -0.2 79
2020-03-20 01:00:00 14.5 16 Este 47 Este 0 992.7 0.9 75
2020-03-20 00:00:00 14.8 20 Este 50 Este 0 993.1 1.2 77
2020-03-19 23:00:00 14.5 21 Este 55 Este 0 992.4 1 77
2020-03-19 22:00:00 14.8 26 Este 63 Sudeste 0 991.8 0.6 76
2020-03-19 21:00:00 14.7 22 Este 55 Este 0 991.9 0.7 76
2020-03-19 20:00:00 14.8 17 Este 43 Sudeste 0 991.4 0 75
2020-03-19 19:00:00 15.2 22 Este 46 Este 0 991.2 -0.7 73
2020-03-19 18:00:00 15.4 21 Este 44 Este 0 991.2 -1.2 75
2020-03-19 17:00:00 15.8 15 Este 55 Este 0 991.4 -1.7 72
2020-03-19 16:00:00 15.8 22 Este 59 Este 0 991.9 -1.7 72
2020-03-19 15:00:00 15.6 26 Este 58 Este 0 992.4 -1.6 73
2020-03-19 14:00:00 15.6 21 Este 54 Sudeste 0 993.1 -0.8 75
2020-03-19 13:00:00 15.5 19 Este 54 Sudeste 0 993.6 -0.5 73
2020-03-19 12:00:00 15.4 24 Este 57 Este 0 994 0.6 72
2020-03-19 11:00:00 15.6 30 Este 66 Este 0 993.9 0.2 74
2020-03-19 10:00:00 15.7 18 Este 54 Este 0 994.1 1.1 74
2020-03-19 09:00:00 15.1 20 Este 68 Este 0 993.4 0 77
2020-03-19 08:00:00 14.6 19 Este 49 Sudeste 0 993.7 1.5 78
2020-03-19 07:00:00 14.5 21 Este 56 Este 0 993 -1.9 78
2020-03-19 06:00:00 14.8 17 Este 64 Este 0 993.4 -2.8 77
2020-03-19 05:00:00 14.6 26 Este 60 Este 0 992.2 -4.1 82
2020-03-19 04:00:00 14.7 26 Este 57 Sudeste 0 994.9 -0.4 82
2020-03-19 03:00:00 15.1 25 Este 60 Este 0 996.2 0.6 78
2020-03-19 02:00:00 15 27 Este 63 Este 0 996.3 1.7 76
2020-03-19 01:00:00 15.1 32 Este 78 Este 0 995.3 0.5 74
2020-03-19 00:00:00 15.3 35 Este 75 Este 0 995.6 1.6 73
2020-03-18 23:00:00 15.4 30 Este 68 Este 0 994.6 0.1 73
2020-03-18 22:00:00 15.4 28 Este 69 Este 0 994.8 0.2 72
2020-03-18 21:00:00 15.7 31 Este 59 Este 0 994 0.7 68
2020-03-18 20:00:00 15.7 21 Este 56 Este 0 994.5 1.7 71
2020-03-18 19:00:00 15.5 20 Sudeste 55 Sudeste 0 994.6 2.2 70
2020-03-18 18:00:00 16.2 21 Este 70 Este 0 993.3 1.6 68
2020-03-18 17:00:00 17.3 20 Este 66 Este 0 992.8 -0.1 67
2020-03-18 16:00:00 18.1 27 Este 87 Sudeste 0 992.4 -0.5 64
2020-03-18 15:00:00 18.5 31 Este 81 Este 0 991.7 -1.7 64
2020-03-18 14:00:00 18.4 27 Este 86 Este 0 992.9 -1.9 65
2020-03-18 13:00:00 18.3 36 Este 100 Este 0 992.9 -1.7 65
2020-03-18 12:00:00 17.2 39 Este 96 Sudeste 0 993.4 -0.6 70
2020-03-18 11:00:00 16.8 30 Este 82 Este 0 994.8 1.3 73
2020-03-18 10:00:00 15.6 30 Este 76 Sudeste 0 994.6 1.7 79
2020-03-18 09:00:00 14.8 29 Este 79 Este 0 994 1.5 83
2020-03-18 08:00:00 14.6 28 Este 73 Este 0 993.5 1 84
2020-03-18 07:00:00 14.6 22 Este 69 Este 0 992.9 -0.1 83
2020-03-18 06:00:00 14.6 27 Este 70 Este 0 992.5 -1.4 83
2020-03-18 05:00:00 14.5 25 Este 64 Este 0 992.5 -1.5 85
2020-03-18 04:00:00 14.6 25 Este 66 Este 0 993 -1.4 85
2020-03-18 03:00:00 14.5 24 Este 74 Este 0 993.9 -1.8 88
2020-03-18 02:00:00 14.7 28 Este 71 Este 0.1 994 -1.9 88
2020-03-18 01:00:00 14.2 16 Este 53 Este 7.1 994.4 -1 93
2020-03-18 00:00:00 13.8 17 Este 44 Este 3.8 995.7 0.7 92
2020-03-17 23:00:00 13.5 13 Este 31 Este 1.7 995.9 1.2 90
2020-03-17 22:00:00 13.4 18 Este 50 Este 0.1 995.4 0.5 82
2020-03-17 21:00:00 13.9 18 Este 44 Este 0 995 0.1 71
2020-03-17 20:00:00 14.4 18 Este 47 Este 0 994.7 -0.2 64
2020-03-17 19:00:00 14.3 19 Este 49 Este 0 994.9 0 68
2020-03-17 18:00:00 15.5 18 Este 49 Este 0 994.9 0.1 67
2020-03-17 17:00:00 15.1 17 Este 48 Este 0 994.9 -0.6 67
2020-03-17 16:00:00 14.1 15 Este 58 Este 0.1 994.9 -1.1 71
2020-03-17 15:00:00 17 23 Este 55 Este 0 994.8 -1.6 55
2020-03-17 14:00:00 15.1 21 Este 50 Sudeste 0 995.5 -0.7 59
2020-03-17 13:00:00 14.8 20 Este 40 Este 0 996 0.3 66
2020-03-17 12:00:00 12 15 Este 29 Este 0.5 996.4 1.6 82
2020-03-17 11:00:00 9.7 9 Sudeste 47 Sudeste 2.4 996.2 1.9 90
2020-03-17 10:00:00 9.2 10 Sudeste 30 Sudeste 1.9 995.7 1.6 89
2020-03-17 09:00:00 11.2 13 Sudeste 39 Sudeste 0 994.8 0.8 76
2020-03-17 08:00:00 11.1 18 Sur 42 Sudeste 0 994.3 0.4 75
2020-03-17 07:00:00 10.1 16 Sur 28 Sudeste 0 994.1 -0.1 81
2020-03-17 06:00:00 8.4 6 Este 14 Nordeste 0 994 -1 82
2020-03-17 05:00:00 8.6 6 Nordeste 14 Nordeste 0 993.9 -1 79
2020-03-17 04:00:00 9.3 5 Nordeste 17 Norte 0.3 994.2 -0.9 79
2020-03-17 03:00:00 10.1 10 Norte 20 Norte 0 995 -0.1 70
2020-03-17 02:00:00 11.3 5 Norte 13 Norte 0 994.9 -0.7 55
2020-03-17 01:00:00 11.5 4 Nordeste 10 Nordeste 0 995.1 -0.2 53
2020-03-17 00:00:00 11.6 4 Este 10 Nordeste 0 995.1 0.2 52
2020-03-16 23:00:00 12.6 3 Nordeste 15 Norte 0 995.6 1.6 48
2020-03-16 22:00:00 13.3 8 Norte 17 Norte 0 995.3 1.8 42
2020-03-16 21:00:00 13.8 8 Noroeste 20 Noroeste 0 994.9 1.4 47
2020-03-16 20:00:00 13.8 10 Oeste 30 Oeste 0 994 0.4 45
2020-03-16 19:00:00 14.8 19 Oeste 41 Noroeste 0 993.5 -0.4 41
2020-03-16 18:00:00 15.7 17 Oeste 48 Noroeste 0 993.5 -0.7 39
2020-03-16 17:00:00 15.4 23 Oeste 50 Oeste 0 993.6 -1.2 39
2020-03-16 16:00:00 15.1 23 Oeste 45 Noroeste 0 993.9 -1.3 42
2020-03-16 15:00:00 14.4 22 Oeste 47 Oeste 0 994.2 -1.2 46
2020-03-16 14:00:00 13.3 21 Oeste 40 Noroeste 0 994.8 -0.9 47
2020-03-16 13:00:00 12.9 21 Oeste 40 Oeste 0 995.2 -0.3 45
2020-03-16 12:00:00 13.2 13 Noroeste 32 Oeste 0 995.4 0.3 44
2020-03-16 11:00:00 12.2 12 Noroeste 31 Noroeste 0 995.7 1.3 49
2020-03-16 10:00:00 11 12 Noroeste 27 Oeste 0 995.5 2.2 51
2020-03-16 09:00:00 9.6 12 Noroeste 26 Oeste 0 995.1 2.3 53
2020-03-16 08:00:00 10.9 11 Noroeste 34 Norte 0 994.4 2 44
2020-03-16 07:00:00 11.1 9 Norte 36 Norte 0 993.3 0.9 50
2020-03-16 06:00:00 11.8 9 Norte 29 Noroeste 0 992.8 0.2 54
2020-03-16 05:00:00 12.8 9 Noroeste 29 Norte 0 992.4 -0.1 59
2020-03-16 04:00:00 13.3 7 Noroeste 23 Norte 0 992.4 -0.7 70
2020-03-16 03:00:00 14.5 8 Oeste 23 Oeste 0 992.6 -1.1 86
2020-03-16 02:00:00 14.7 5 Sur 10 Sur 0.1 992.5 -1 90
2020-03-16 01:00:00 14.6 3 Sudeste 8 Sur 0.2 993.1 -0.4 88
2020-03-16 00:00:00 15.2 3 Sur 12 Sudeste 0 993.7 0.4 81
2020-03-15 23:00:00 15.1 3 Sur 9 Este 0 993.5 1.1 76
2020-03-15 22:00:00 15.1 4 Este 17 Este 0 993.5 1.5 75
2020-03-15 21:00:00 15.2 6 Este 11 Este 0 993.3 1.4 72
2020-03-15 20:00:00 15.3 6 Este 18 Sudeste 0 992.4 -0.1 70
2020-03-15 19:00:00 17.7 8 Este 24 Este 0 992 -0.7 64
2020-03-15 18:00:00 19.5 10 Este 25 Este 0 991.9 -1.3 58
2020-03-15 17:00:00 21.7 8 Este 24 Este 0 992.5 -1.3 50
2020-03-15 16:00:00 21.6 12 Este 28 Este 0 992.7 -1.6 50
2020-03-15 15:00:00 22.1 9 Sudeste 31 Sudeste 0 993.2 -1.7 51
2020-03-15 14:00:00 21.3 12 Este 31 Este 0 993.8 -1.1 51
2020-03-15 13:00:00 20.6 12 Este 32 Este 0 994.3 -0.3 56
2020-03-15 12:00:00 19.8 13 Este 35 Este 0 994.9 0.7 60
2020-03-15 11:00:00 17.7 16 Este 33 Este 0 994.9 0.8 69
2020-03-15 10:00:00 15.4 13 Este 30 Este 0 994.6 0.6 79
2020-03-15 09:00:00 14.5 12 Este 28 Este 0 994.2 0.2 82
2020-03-15 08:00:00 13.6 11 Este 28 Este 0 994.1 0.3 85
2020-03-15 07:00:00 13.6 12 Este 25 Este 0 994 0 84
2020-03-15 06:00:00 13.5 9 Este 26 Este 0 994 -1 84
2020-03-15 05:00:00 13.5 11 Este 26 Este 0 993.8 -1.2 83
2020-03-15 04:00:00 13.6 14 Este 30 Este 0 994 -1.2 82
2020-03-15 03:00:00 13.5 13 Este 30 Este 0 995 -0.5 83
2020-03-15 02:00:00 14.2 14 Este 36 Este 0 995 -0.8 80
2020-03-15 01:00:00 14.2 14 Este 33 Este 0 995.2 -0.6 80
2020-03-15 00:00:00 13.9 14 Este 30 Este 0 995.5 0.1 80
2020-03-14 23:00:00 13.9 6 Este 17 Este 0 995.8 0.5 77
2020-03-14 22:00:00 14.4 5 Este 13 Este 0 995.8 0.5 77
2020-03-14 21:00:00 15.1 6 Este 20 Este 0 995.4 0 75
2020-03-14 20:00:00 15.1 5 Este 18 Sudeste 0 995.3 -0.2 70
2020-03-14 19:00:00 18.4 8 Este 17 Sudeste 0 995.3 -0.5 62
2020-03-14 18:00:00 21 7 Este 18 Este 0 995.4 -0.9 54
2020-03-14 17:00:00 22.7 8 Este 20 Sudeste 0 995.5 -1.7 50
2020-03-14 16:00:00 23.3 5 Este 18 Este 0 995.8 -2 50
2020-03-14 15:00:00 22.9 4 Este 16 Este 0 996.3 -2 51
2020-03-14 14:00:00 21.9 4 Este 20 Sudeste 0 997.2 -1.2 55
2020-03-14 13:00:00 20.5 4 Sudeste 18 Este 0 997.8 -0.5 59
2020-03-14 12:00:00 19.2 5 Sudeste 19 Este 0 998.3 0.3 62
2020-03-14 11:00:00 18.3 7 Este 20 Sudeste 0 998.4 0.9 68
2020-03-14 10:00:00 17.2 6 Este 12 Este 0 998.3 1 68
2020-03-14 09:00:00 14.7 3 Sudeste 14 Sudeste 0 998 1.1 82
2020-03-14 08:00:00 13.8 5 Sudeste 11 Sudeste 0 997.5 0.6 83
2020-03-14 07:00:00 14 3 Este 9 Este 0 997.3 0.2 83
2020-03-14 06:00:00 13.9 4 Este 9 Este 0 996.9 -0.2 85
2020-03-14 05:00:00 13.5 2 Sudeste 6 Sudeste 0 996.9 -0.6 86
2020-03-14 04:00:00 13.4 2 Sudeste 4 Sudeste 0 997.1 -0.4 87
2020-03-14 03:00:00 13.1 3 Este 5 Este 0 997.1 -0.3 88
2020-03-14 02:00:00 13.1 2 Sudeste 4 Sur 0 997.5 0.3 87
2020-03-14 01:00:00 13.4 0 Calma 4 Sudeste 0 997.5 0.6 85
2020-03-14 00:00:00 13.3 3 Sudeste 5 Sudeste 0 997.4 0.9 83
2020-03-13 23:00:00 14.1 0 Calma 3 Sudeste 0 997.2 1.1 82
2020-03-13 22:00:00 14.2 0 Calma 4 Oeste 0 996.9 1 81
2020-03-13 21:00:00 14.6 2 Oeste 13 Oeste 0 996.5 0.6 79
2020-03-13 20:00:00 15.3 7 Oeste 15 Oeste 0 996.1 0.2 76
2020-03-13 19:00:00 16.4 8 Oeste 18 Oeste 0 995.9 -0.5 71
2020-03-13 18:00:00 17.8 10 Oeste 22 Sudoeste 0 995.9 -0.9 66
2020-03-13 17:00:00 19.6 11 Oeste 22 Sudoeste 0 995.9 -1.4 60
2020-03-13 16:00:00 20 10 Sudoeste 23 Sudoeste 0 996.4 -1.3 58
2020-03-13 15:00:00 19.6 11 Oeste 22 Sudoeste 0 996.8 -0.9 60
2020-03-13 14:00:00 20.2 9 Sudoeste 19 Sudoeste 0 997.3 -0.6 59
2020-03-13 13:00:00 18.5 8 Oeste 18 Sudoeste 0 997.7 0 64
2020-03-13 12:00:00 17.1 9 Oeste 18 Sudoeste 0 997.7 0.6 69
2020-03-13 11:00:00 15.4 8 Sudoeste 19 Sudoeste 0 997.9 1.3 73
2020-03-13 10:00:00 14.8 8 Sudoeste 15 Sudoeste 0 997.7 1.5 78
2020-03-13 09:00:00 14.2 8 Sudoeste 14 Sudoeste 0 997.1 1.2 80
2020-03-13 08:00:00 14.1 5 Sudoeste 14 Oeste 0 996.6 0.5 82
2020-03-13 07:00:00 14.2 5 Sudoeste 12 Oeste 0 996.2 -0.1 81
2020-03-13 06:00:00 14.5 3 Sudoeste 10 Sudoeste 0 995.9 -0.8 82
2020-03-13 05:00:00 14.5 5 Oeste 14 Oeste 0 996.1 -0.7 84
2020-03-13 04:00:00 14.7 6 Sudoeste 17 Oeste 0 996.3 -0.8 86
2020-03-13 03:00:00 14.7 7 Sudoeste 19 Oeste 0 996.7 -0.5 88
2020-03-13 02:00:00 14.6 7 Oeste 18 Sudoeste 0 996.8 -0.1 91
2020-03-13 01:00:00 14.7 5 Sudoeste 10 Sudoeste 0 997.1 0.4 83
2020-03-13 00:00:00 15.8 4 Norte 10 Norte 0 997.2 0.4 73
2020-03-12 23:00:00 15.4 3 Norte 13 Norte 0 996.9 0.6 70
2020-03-12 22:00:00 15.5 8 Noroeste -- -- -- 996.7 0.6 84
2020-03-12 21:00:00 15.7 5 Oeste 21 Oeste 0 996.8 0.7 86
2020-03-12 20:00:00 15 13 Oeste 25 Oeste 0 996.3 0 87
2020-03-12 19:00:00 17 8 Oeste 24 Oeste 0 996.1 -0.5 78
2020-03-12 18:00:00 20.4 12 Oeste 19 Oeste 0 996.1 -1.1 63
2020-03-12 17:00:00 21.6 13 Oeste 24 Oeste 0 996.3 -1.9 60
2020-03-12 16:00:00 23.8 10 Oeste 21 Oeste 0 996.6 -2.3 53
2020-03-12 15:00:00 21 8 Oeste 17 Sudoeste 0 997.2 -1.8 61
2020-03-12 14:00:00 20.3 6 Oeste 16 Sudoeste 0 998.2 -1 62
2020-03-12 13:00:00 22.4 8 Sudoeste 16 Sudeste 0 998.9 0.2 54
2020-03-12 12:00:00 23.1 6 Sur 14 Sudeste 0 999 0.7 46
2020-03-12 11:00:00 20.9 6 Sur 16 Sudeste 0 999.2 1.5 55
2020-03-12 10:00:00 18 5 Sur 18 Sur 0 998.7 1.4 67
2020-03-12 09:00:00 16 8 Sur 20 Sur 0 998.3 1.2 74
2020-03-12 08:00:00 15.5 12 Sudeste 24 Sudeste 0 997.7 0.6 71
2020-03-12 07:00:00 15.6 13 Sur 28 Sur 0 997.3 0 68
2020-03-12 06:00:00 15.8 9 Sur 16 Sudeste 0 997.1 -0.8 66
2020-03-12 05:00:00 16.9 2 Sur 7 Este 0 997.1 -0.9 56
2020-03-12 04:00:00 17.8 2 Oeste 9 Sudeste 0 997.3 -1 49
2020-03-12 03:00:00 19.1 5 Sudeste 13 Sudeste 0 997.9 -0.7 41
2020-03-12 02:00:00 19.4 6 Sudeste 14 Sudeste 0 998 -0.4 40
2020-03-12 01:00:00 18.5 5 Sudeste 12 Este 0 998.3 0.5 46
2020-03-12 00:00:00 19.1 6 Este 18 Este 0 998.6 0.7 40
2020-03-11 23:00:00 18.8 8 Este 16 Este 0 998.4 0.6 41
2020-03-11 22:00:00 19.1 9 Este 25 Este 0 997.8 0.1 38
2020-03-11 21:00:00 20 12 Este 27 Este 0 997.9 0.1 35
2020-03-11 20:00:00 21.1 11 Este 31 Este 0 997.8 -0.2 33
2020-03-11 19:00:00 22 14 Este 32 Este 0 997.7 -0.6 30
2020-03-11 18:00:00 23.9 12 Este 30 Este 0 997.8 -0.8 30
2020-03-11 17:00:00 24.6 10 Este 25 Nordeste 0 998 -1.2 30
2020-03-11 16:00:00 25.2 10 Este 27 Este 0 998.3 -1.4 28
2020-03-11 15:00:00 25 11 Este 30 Este 0 998.6 -1.2 29
2020-03-11 14:00:00 22.2 12 Este 36 Este 0 999.2 -0.9 32
2020-03-11 13:00:00 21.9 16 Este 41 Este 0 999.7 -0.8 35
2020-03-11 12:00:00 20.9 18 Este 49 Este 0 999.8 -0.6 37
2020-03-11 11:00:00 19.9 16 Este 40 Este 0 1000.1 -0.1 44
2020-03-11 10:00:00 18.5 14 Este 36 Este 0 1000.5 0.4 46
2020-03-11 09:00:00 15.9 14 Este 38 Este 0 1000.4 0.3 51
2020-03-11 08:00:00 14.3 14 Este 28 Este 0 1000.2 0 54
2020-03-11 07:00:00 14.1 12 Este 25 Este 0 1000.1 -0.5 50
2020-03-11 06:00:00 14.7 12 Este 35 Este 0 1000.1 -1 46
2020-03-11 05:00:00 15.2 16 Este 39 Este 0 1000.2 -1.6 43
2020-03-11 04:00:00 15.1 12 Este 31 Este 0 1000.6 -1.7 44
2020-03-11 03:00:00 15.5 15 Este 41 Este 0 1001.1 -1.7 44
2020-03-11 02:00:00 15.6 15 Este 40 Este 0 1001.8 -1.1 46
2020-03-11 01:00:00 15.4 15 Este 36 Este 0 1002.3 -0.5 48
2020-03-11 00:00:00 15.6 15 Este 31 Sudeste 0 1002.8 0.2 49
2020-03-10 23:00:00 15.8 17 Este 34 Este 0 1002.9 0.3 47
2020-03-10 22:00:00 15.9 13 Este 23 Este 0 1002.8 0.2 48
2020-03-10 21:00:00 15.7 11 Este 35 Este 0 1002.6 0.1 48
2020-03-10 20:00:00 17.1 14 Este 32 Este 0 1002.6 0.4 46
2020-03-10 19:00:00 18.8 11 Este 31 Este 0 1002.6 0.3 44
2020-03-10 18:00:00 20.8 13 Este 36 Nordeste 0 1002.5 -0.1 44
2020-03-10 17:00:00 22 16 Este 42 Este 0 1002.2 -0.8 41
2020-03-10 16:00:00 23.4 19 Este 42 Este 0 1002.3 -1.4 40
2020-03-10 15:00:00 24.7 15 Este 41 Este 0 1002.6 -1.4 34
2020-03-10 14:00:00 24.5 16 Este 41 Este 0 1003 -1 33
2020-03-10 13:00:00 23.8 10 Este 26 Este 0 1003.7 0.2 45
2020-03-10 12:00:00 22.4 5 Este 14 Este 0 1004 1.6 47
2020-03-10 11:00:00 20.2 5 Sudeste 12 Sudeste 0 1004 2.2 63
2020-03-10 10:00:00 17.6 2 Sudeste 13 Sur 0 1003.5 2.4 67
2020-03-10 09:00:00 14.5 7 Sudeste 15 Sur 0 1002.4 1.8 81
2020-03-10 08:00:00 12.4 5 Sudeste 12 Este 0 1001.8 1 70
2020-03-10 07:00:00 12.4 4 Este 10 Nordeste 0 1001.1 0 62
2020-03-10 06:00:00 13.7 3 Nordeste 10 Norte 0 1000.6 -1.3 56
2020-03-10 05:00:00 15 4 Norte 21 Norte 0 1000.8 -1.7 51
2020-03-10 04:00:00 16.1 10 Norte 25 Norte 0 1001.1 -1.8 46
2020-03-10 03:00:00 16.4 12 Norte 22 Norte 0 1001.9 -1.3 43
2020-03-10 02:00:00 16.4 2 Nordeste 23 Norte 0 1002.5 -0.6 53
2020-03-10 01:00:00 15 5 Norte 15 Norte 0 1002.9 -0.4 62
2020-03-10 00:00:00 14.5 3 Sudeste 14 Oeste 0 1003.2 0.6 68
2020-03-09 23:00:00 15.5 9 Oeste 17 Oeste 0 1003.1 0.5 69
2020-03-09 22:00:00 15.3 11 Oeste 22 Oeste 0 1003.3 0.7 76
2020-03-09 21:00:00 15.4 12 Oeste 22 Oeste 0 1002.6 -0.2 60
2020-03-09 20:00:00 16.7 13 Oeste 21 Oeste 0 1002.6 0 52
2020-03-09 19:00:00 18.7 10 Oeste 27 Oeste 0 1002.6 -0.1 47
2020-03-09 18:00:00 19.7 13 Oeste 30 Oeste 0 1002.8 -0.6 48
2020-03-09 17:00:00 20.2 15 Oeste 28 Sudoeste 0 1002.6 -1.4 53
2020-03-09 16:00:00 21.7 14 Oeste 30 Oeste 0 1002.7 -2.1 48
2020-03-09 15:00:00 21.7 17 Oeste 31 Oeste 0 1003.4 -1.5 51
2020-03-09 14:00:00 23 9 Noroeste 26 Norte 0 1004 -0.8 31
2020-03-09 13:00:00 22 8 Noroeste 26 Norte 0 1004.8 0.4 33
2020-03-09 12:00:00 20.5 9 Norte 26 Norte 0 1004.9 0.8 39
2020-03-09 11:00:00 18 10 Norte 25 Norte 0 1004.8 1.7 51
2020-03-09 10:00:00 15.2 8 Noroeste 23 Norte 0 1004.4 1.4 57
2020-03-09 09:00:00 13.7 12 Norte 23 Norte 0 1004.1 1.3 61
2020-03-09 08:00:00 14.3 10 Norte 22 Norte 0 1003.1 0.4 56
2020-03-09 07:00:00 14.7 12 Norte 23 Norte 0 1003 -0.1 49
2020-03-09 06:00:00 14.5 10 Norte 24 Norte 0 1002.8 -0.5 48
2020-03-09 05:00:00 14 16 Norte 30 Norte 0 1002.7 -1.1 52
2020-03-09 04:00:00 15 10 Norte 21 Norte 0 1003.1 -0.5 50
2020-03-09 03:00:00 14.9 10 Norte 21 Norte 0 1003.3 -0.8 52
2020-03-09 02:00:00 15.5 10 Norte 23 Norte 0 1003.8 -0.4 53
2020-03-09 01:00:00 15.8 8 Noroeste 27 Oeste 0 1003.6 -0.6 56
2020-03-09 00:00:00 15.8 10 Noroeste 22 Oeste 0 1004.1 0.4 60